Time;durP1;ratioP1;P1;durP2;ratioP2;P2;SDS_P1;SDS_P2;PMS_P1;PMS_P2;Temp;Humidity;BMP_temperature;BMP_pressure;BME280_temperature;BME280_humidity;BME280_pressure;Samples;Min_cycle;Max_cycle;Signal;HPM_P1;HPM_P2
2022/02/06 14:38:04;;;;;;;11.03;2.43;;;;;;;14.67;100.00;99898.47;5110364;27;20380;-58
2022/02/06 14:43:14;;;;;;;10.93;2.47;;;;;;;14.83;100.00;99902.22;5121209;27;20286;-56
2022/02/06 14:45:46;;;;;;;10.57;2.57;;;;;;;15.24;100.00;99887.69;5109141;28;20344;-57
2022/02/06 14:48:12;;;;;;;9.37;1.77;;;;;;;15.63;100.00;99888.44;5126098;28;20306;-69
2022/02/06 14:50:37;;;;;;;6.05;1.50;;;;;;;15.20;100.00;99884.69;5114106;28;20748;-57
2022/02/06 14:53:03;;;;;;;6.43;1.83;;;;;;;14.70;100.00;99886.41;5121360;27;20066;-57
2022/02/06 14:55:28;;;;;;;9.57;1.50;;;;;;;14.46;100.00;99873.94;5113014;28;20032;-51
2022/02/06 14:57:53;;;;;;;16.33;1.73;;;;;;;14.53;100.00;99905.22;5108112;28;20085;-54
2022/02/06 15:00:19;;;;;;;5.33;1.10;;;;;;;14.86;100.00;99880.19;5125810;28;20043;-54
2022/02/06 15:02:45;;;;;;;5.13;1.40;;;;;;;14.97;100.00;99869.59;5114974;28;20048;-55
2022/02/06 15:05:10;;;;;;;7.55;1.20;;;;;;;14.52;100.00;99882.06;5120205;27;20109;-54
2022/02/06 15:07:35;;;;;;;3.73;1.40;;;;;;;14.80;100.00;99886.56;5121735;28;20035;-53
2022/02/06 15:10:01;;;;;;;6.17;1.43;;;;;;;15.89;100.00;99886.03;5112628;27;20272;-53
2022/02/06 15:12:27;;;;;;;5.97;1.60;;;;;;;15.58;100.00;99892.97;5125169;28;20027;-55
2022/02/06 15:14:54;;;;;;;13.50;1.90;;;;;;;15.64;100.00;99894.66;5107834;28;20059;-51
2022/02/06 15:17:22;;;;;;;8.47;2.93;;;;;;;15.59;100.00;99898.09;5108460;28;20047;-53
2022/02/06 15:19:47;;;;;;;10.03;2.37;;;;;;;15.08;100.00;99902.84;5123223;28;20359;-52
2022/02/06 15:22:13;;;;;;;7.70;2.20;;;;;;;14.66;100.00;99910.28;5111889;27;20268;-53
2022/02/06 15:24:38;;;;;;;7.73;1.70;;;;;;;15.30;100.00;99911.75;5123977;27;20112;-53
2022/02/06 15:27:04;;;;;;;5.90;1.60;;;;;;;14.80;100.00;99904.63;5116539;28;20027;-55
2022/02/06 15:29:29;;;;;;;3.78;1.55;;;;;;;14.56;100.00;99908.25;5116000;27;20039;-50
2022/02/06 15:31:56;;;;;;;16.83;2.90;;;;;;;15.02;100.00;99902.78;5124066;28;20036;-52
2022/02/06 15:34:21;;;;;;;;;;;;;;;15.24;100.00;99895.78;5109642;27;20085;-54
2022/02/06 15:36:50;;;;;;;14.63;4.40;;;;;;;15.84;100.00;99887.88;5102068;28;20383;-53
2022/02/06 15:39:24;;;;;;;21.27;7.83;;;;;;;15.11;100.00;99896.97;5108349;28;20486;-55
2022/02/06 15:41:54;;;;;;;17.33;6.70;;;;;;;14.26;100.00;99901.31;5112317;28;20274;-54
2022/02/06 15:44:20;;;;;;;22.80;7.00;;;;;;;14.72;100.00;99885.13;5124515;28;20267;-55
2022/02/06 15:46:46;;;;;;;34.78;10.68;;;;;;;14.30;100.00;99872.03;5113830;28;20768;-56
2022/02/06 15:49:11;;;;;;;37.13;10.18;;;;;;;14.69;100.00;99874.81;5106304;27;20578;-54
2022/02/06 15:51:37;;;;;;;40.50;11.00;;;;;;;14.59;100.00;99863.91;5107408;28;20126;-52
2022/02/06 15:54:02;;;;;;;31.07;9.37;;;;;;;14.29;100.00;99855.09;5098029;28;20086;-52
2022/02/06 15:56:28;;;;;;;40.28;12.05;;;;;;;14.34;100.00;99867.84;5109194;28;20029;-53
2022/02/06 15:58:53;;;;;;;33.17;10.17;;;;;;;14.37;100.00;99867.34;5093590;28;20040;-51
2022/02/06 16:01:19;;;;;;;38.83;9.87;;;;;;;14.12;100.00;99865.88;5105235;28;20058;-52
2022/02/06 16:03:44;;;;;;;35.00;7.43;;;;;;;14.65;100.00;99871.00;5100456;28;20339;-52
2022/02/06 16:06:10;;;;;;;12.33;3.53;;;;;;;14.44;100.00;99846.47;5110897;28;20031;-54
2022/02/06 16:08:36;;;;;;;12.63;2.13;;;;;;;14.48;100.00;99846.78;5098437;28;20032;-55
2022/02/06 16:11:01;;;;;;;15.70;2.97;;;;;;;14.21;100.00;99860.91;5105888;28;20430;-54
2022/02/06 16:13:27;;;;;;;22.02;4.63;;;;;;;13.95;100.00;99849.69;5104621;28;20031;-52
2022/02/06 16:15:52;;;;;;;33.87;9.43;;;;;;;14.15;100.00;99860.00;5099147;27;20448;-53
2022/02/06 16:18:17;;;;;;;32.67;9.30;;;;;;;14.15;100.00;99861.84;5095848;28;20469;-54
2022/02/06 16:20:44;;;;;;;33.00;8.30;;;;;;;14.18;100.00;99864.88;5108938;28;20028;-51
2022/02/06 16:23:10;;;;;;;29.45;8.15;;;;;;;13.28;100.00;99851.13;5103092;28;20050;-51
2022/02/06 16:25:35;;;;;;;19.08;5.43;;;;;;;13.24;100.00;99856.13;5101171;28;20495;-53
2022/02/06 16:28:01;;;;;;;40.77;11.33;;;;;;;13.47;100.00;99859.84;5100804;28;20036;-55
2022/02/06 16:30:27;;;;;;;13.37;3.30;;;;;;;13.14;100.00;99926.53;5096403;28;20080;-51
2022/02/06 16:32:52;;;;;;;31.80;8.93;;;;;;;13.24;100.00;99853.47;5107290;28;20039;-50
2022/02/06 16:35:18;;;;;;;40.27;11.37;;;;;;;13.38;100.00;99870.09;5104062;28;20035;-53
2022/02/06 16:37:43;;;;;;;19.23;7.23;;;;;;;13.43;100.00;99864.06;5086095;28;20063;-54
2022/02/06 16:40:09;;;;;;;30.43;9.13;;;;;;;13.20;100.00;99871.91;5107318;28;20059;-52
2022/02/06 16:42:34;;;;;;;19.58;5.03;;;;;;;12.51;100.00;99879.75;5096361;28;20084;-56
2022/02/06 16:44:59;;;;;;;12.87;3.10;;;;;;;12.77;100.00;99873.94;5106175;28;20036;-55
2022/02/06 16:47:25;;;;;;;7.03;2.43;;;;;;;12.33;100.00;99890.31;5104594;28;20032;-51
2022/02/06 16:49:51;;;;;;;8.17;2.67;;;;;;;12.46;100.00;99905.41;5099153;28;20040;-54
2022/02/06 16:52:16;;;;;;;4.68;1.55;;;;;;;12.43;100.00;99894.31;5110075;28;20039;-53
2022/02/06 16:54:42;;;;;;;10.23;3.17;;;;;;;12.17;100.00;99896.38;5093098;28;20032;-51
2022/02/06 16:57:07;;;;;;;6.33;1.50;;;;;;;11.40;100.00;99905.78;5091919;28;20032;-51
2022/02/06 16:59:34;;;;;;;17.17;1.92;;;;;;;12.09;100.00;99923.47;5104225;28;20126;-55
2022/02/06 17:01:59;;;;;;;;;;;;;;;11.19;100.00;99913.22;5096138;28;20043;-54
2022/02/06 17:04:25;;;;;;;5.73;2.03;;;;;;;11.38;100.00;99948.03;5094919;28;19908;-50
2022/02/06 17:06:50;;;;;;;5.20;1.23;;;;;;;10.88;100.00;99947.88;5107425;28;20050;-54
2022/02/06 17:09:16;;;;;;;4.30;1.00;;;;;;;11.72;100.00;99986.78;5103074;28;20099;-54
2022/02/06 17:11:42;;;;;;;8.67;1.97;;;;;;;11.67;100.00;99967.06;5099239;28;20268;-52
2022/02/06 17:14:08;;;;;;;5.03;1.17;;;;;;;11.56;100.00;99988.19;5109699;28;20546;-50
2022/02/06 17:16:33;;;;;;;5.80;1.77;;;;;;;11.59;100.00;99985.06;5092752;28;20032;-53
2022/02/06 17:18:59;;;;;;;8.57;1.83;;;;;;;11.72;100.00;99981.44;5097004;28;20027;-51
2022/02/06 17:21:24;;;;;;;5.97;1.02;;;;;;;11.35;100.00;99975.25;5092655;28;20040;-53
2022/02/06 17:23:50;;;;;;;15.47;1.33;;;;;;;11.31;100.00;99956.97;5092733;28;20048;-50
2022/02/06 17:26:15;;;;;;;6.93;1.63;;;;;;;11.67;100.00;99953.66;5108894;28;20043;-51
2022/02/06 17:28:41;;;;;;;3.37;1.20;;;;;;;11.57;100.00;99930.94;5097395;28;20043;-51
2022/02/06 17:31:06;;;;;;;6.70;1.10;;;;;;;11.12;100.00;99912.47;5104224;28;20038;-55
2022/02/06 17:33:32;;;;;;;5.20;1.30;;;;;;;11.85;100.00;99909.97;5104379;28;20024;-52
2022/02/06 17:35:58;;;;;;;9.63;1.35;;;;;;;11.53;100.00;99910.97;5095703;28;20851;-49
2022/02/06 17:38:27;;;;;;;6.95;1.75;;;;;;;11.80;100.00;99907.16;5095149;28;20081;-51
2022/02/06 17:40:56;;;;;;;11.00;2.40;;;;;;;11.53;100.00;99902.94;5105915;28;20443;-51
2022/02/06 17:43:22;;;;;;;7.03;1.60;;;;;;;11.42;100.00;99919.75;5092411;28;20055;-51
2022/02/06 17:45:47;;;;;;;14.63;2.27;;;;;;;11.37;100.00;99931.13;5106666;28;20035;-53
2022/02/06 17:48:17;;;;;;;6.78;1.67;;;;;;;11.40;100.00;99927.22;5095735;28;20068;-52
2022/02/06 17:50:43;;;;;;;4.75;1.48;;;;;;;12.27;100.00;99930.66;5107786;28;20110;-50
2022/02/06 17:53:09;;;;;;;;;;;;;;;11.90;100.00;99921.63;5101133;28;20027;-52
2022/02/06 17:55:34;;;;;;;18.60;2.07;;;;;;;11.40;100.00;99936.03;5099557;28;19919;-51
2022/02/06 17:58:00;;;;;;;6.20;1.50;;;;;;;11.48;100.00;99935.75;5092147;28;20039;-52
2022/02/06 18:00:26;;;;;;;8.93;2.85;;;;;;;12.23;100.00;99943.69;5108723;28;20084;-54
2022/02/06 18:02:52;;;;;;;8.93;1.73;;;;;;;11.75;100.00;99943.47;5092094;28;20040;-52
2022/02/06 18:05:17;;;;;;;10.63;2.17;;;;;;;12.61;100.00;99961.28;5101847;28;20032;-57
2022/02/06 18:07:42;;;;;;;13.67;2.40;;;;;;;12.59;100.00;99954.50;5098893;28;20113;-53
2022/02/06 18:10:09;;;;;;;10.93;2.97;;;;;;;12.70;100.00;99937.63;5107890;28;20104;-49
2022/02/06 18:12:35;;;;;;;16.73;2.45;;;;;;;13.15;100.00;99960.38;5095448;28;20486;-50
2022/02/06 18:15:00;;;;;;;9.50;2.58;;;;;;;12.52;100.00;99951.91;5104601;28;20085;-51
2022/02/06 18:17:27;;;;;;;9.57;2.55;;;;;;;12.64;100.00;99968.03;5091230;28;20036;-49
2022/02/06 18:19:53;;;;;;;8.65;2.13;;;;;;;12.09;100.00;99974.41;5106547;28;20092;-52
2022/02/06 18:22:20;;;;;;;9.18;1.75;;;;;;;12.31;100.00;99994.31;5095187;28;20032;-51
2022/02/06 18:24:45;;;;;;;7.22;2.05;;;;;;;12.53;100.00;99995.66;5106012;28;20039;-49
2022/02/06 18:27:11;;;;;;;6.45;2.28;;;;;;;12.24;100.00;100000.81;5100405;28;20092;-53
2022/02/06 18:29:46;;;;;;;10.02;2.10;;;;;;;12.48;100.00;100010.59;5084423;28;20043;-54
2022/02/06 18:32:12;;;;;;;7.57;2.08;;;;;;;12.16;100.00;100010.00;5105686;28;20123;-53
2022/02/06 18:34:37;;;;;;;12.27;2.22;;;;;;;12.07;100.00;100009.47;5095915;28;20119;-51
2022/02/06 18:37:03;;;;;;;11.43;3.83;;;;;;;12.11;100.00;100016.03;5095911;28;20051;-52
2022/02/06 18:39:28;;;;;;;14.90;2.72;;;;;;;12.05;100.00;100003.53;5093616;28;20696;-52
2022/02/06 18:41:54;;;;;;;12.17;2.60;;;;;;;12.29;100.00;100012.47;5096902;28;20097;-54
2022/02/06 18:46:47;;;;;;;16.92;2.47;;;;;;;12.05;100.00;100000.84;4995003;28;20050;-53
2022/02/06 18:49:18;;;;;;;11.90;1.67;;;;;;;12.24;100.00;100004.31;5000497;28;20516;-53
2022/02/06 18:51:43;;;;;;;11.57;2.08;;;;;;;11.87;100.00;99999.78;4987772;28;20160;-52
2022/02/06 18:54:12;;;;;;;15.93;2.60;;;;;;;11.80;100.00;99996.38;5004383;28;20065;-50
2022/02/06 18:56:37;;;;;;;12.90;2.20;;;;;;;11.74;100.00;99999.94;4991702;28;20042;-49
2022/02/06 18:59:05;;;;;;;19.53;3.07;;;;;;;12.10;100.00;100003.66;4999169;28;20100;-53
2022/02/06 19:01:31;;;;;;;15.45;2.83;;;;;;;12.18;100.00;100013.25;5000661;28;20061;-48
2022/02/06 19:03:56;;;;;;;11.37;2.63;;;;;;;12.32;100.00;100016.56;5006604;28;20459;-51
2022/02/06 19:06:22;;;;;;;19.47;3.00;;;;;;;12.33;100.00;100002.94;5035207;22;20050;-49
2022/02/06 19:08:49;;;;;;;24.83;3.08;;;;;;;11.90;100.00;99998.53;4990267;28;20515;-49
2022/02/06 19:11:24;;;;;;;15.90;2.35;;;;;;;12.15;100.00;100022.56;4991943;28;20038;-44
2022/02/06 19:13:50;;;;;;;14.27;3.03;;;;;;;12.33;100.00;100002.94;4991725;28;20038;-45
2022/02/06 19:16:16;;;;;;;24.30;3.58;;;;;;;12.27;100.00;100009.22;5007588;28;20038;-50
2022/02/06 19:18:42;;;;;;;21.33;2.85;;;;;;;11.81;100.00;100007.91;4996195;28;20034;-45
2022/02/06 19:21:08;;;;;;;18.77;3.10;;;;;;;12.02;100.00;100004.78;5003211;28;20038;-49
2022/02/06 19:23:35;;;;;;;23.70;3.35;;;;;;;12.13;100.00;100019.28;5004535;28;20050;-47
2022/02/06 19:26:03;;;;;;;17.30;2.22;;;;;;;11.80;100.00;100015.13;4999640;28;20514;-50
2022/02/06 19:28:30;;;;;;;21.95;3.75;;;;;;;12.10;100.00;100009.03;5011542;28;20498;-50
2022/02/06 19:30:59;;;;;;;14.40;2.28;;;;;;;11.90;100.00;100019.97;5001565;28;20077;-44
2022/02/06 19:33:25;;;;;;;20.58;2.80;;;;;;;12.49;100.00;100011.38;5004848;28;20038;-49
2022/02/06 19:35:52;;;;;;;13.53;2.97;;;;;;;11.82;100.00;99999.66;5009807;28;20034;-46
2022/02/06 19:38:18;;;;;;;22.42;7.13;;;;;;;12.04;100.00;99983.13;4998955;28;20471;-45
2022/02/06 19:40:43;;;;;;;43.92;10.65;;;;;;;12.12;100.00;100006.94;5010348;28;20061;-47
2022/02/06 19:43:09;;;;;;;24.10;5.87;;;;;;;12.03;100.00;100024.38;5003387;28;20065;-45
2022/02/06 19:45:36;;;;;;;24.25;3.30;;;;;;;12.05;100.00;100017.72;5014437;28;20044;-45
2022/02/06 19:48:04;;;;;;;21.55;2.83;;;;;;;11.73;100.00;100015.19;4999410;28;20042;-47
2022/02/06 19:50:30;;;;;;;13.07;2.17;;;;;;;11.30;100.00;100018.72;5010609;28;20193;-50
2022/02/06 19:52:56;;;;;;;11.13;2.35;;;;;;;12.19;100.00;100004.97;5000921;28;20057;-50
2022/02/06 19:55:22;;;;;;;;;;;;;;;12.16;100.00;100007.31;5005619;28;20055;-51
2022/02/06 19:57:49;;;;;;;11.03;2.00;;;;;;;12.25;100.00;100018.53;5008031;28;19921;-48
2022/02/06 20:00:15;;;;;;;11.68;1.95;;;;;;;12.08;100.00;100016.47;4998209;28;20121;-43
2022/02/06 20:02:41;;;;;;;16.67;2.30;;;;;;;11.78;100.00;100019.91;5010921;28;20488;-48
2022/02/06 20:05:07;;;;;;;16.53;2.90;;;;;;;11.55;100.00;100048.16;5007685;28;20141;-46
2022/02/06 20:07:33;;;;;;;14.38;2.10;;;;;;;11.71;100.00;100035.19;5023103;28;20037;-45
2022/02/06 20:10:03;;;;;;;19.50;2.67;;;;;;;12.02;100.00;100038.81;5026981;28;20025;-47
2022/02/06 20:12:30;;;;;;;12.57;2.30;;;;;;;11.65;100.00;100053.00;5016628;28;20276;-50
2022/02/06 20:14:59;;;;;;;19.98;2.47;;;;;;;11.91;100.00;100049.19;5028056;28;20042;-48
2022/02/06 20:17:27;;;;;;;10.40;2.85;;;;;;;11.95;100.00;100048.75;5024346;28;20037;-47
2022/02/06 20:19:53;;;;;;;17.80;2.30;;;;;;;11.87;100.00;100058.72;5020349;28;20042;-47
2022/02/06 20:22:18;;;;;;;13.85;2.72;;;;;;;11.52;100.00;100061.16;5030583;28;20037;-47
2022/02/06 20:24:44;;;;;;;19.00;2.65;;;;;;;11.95;100.00;100043.38;5018787;28;20036;-45
2022/02/06 20:27:14;;;;;;;16.00;1.63;;;;;;;11.79;100.00;100061.72;5026133;28;20040;-45
2022/02/06 20:29:43;;;;;;;26.25;2.33;;;;;;;12.41;100.00;100063.47;5026736;28;20038;-46
2022/02/06 20:32:10;;;;;;;15.48;3.40;;;;;;;12.16;100.00;100069.75;5017631;28;20045;-47
2022/02/06 20:34:35;;;;;;;;;;;;;;;11.42;100.00;100067.00;5030970;28;20038;-44
2022/02/06 20:37:03;;;;;;;16.77;2.57;;;;;;;11.79;100.00;100077.78;5020890;28;19970;-44
2022/02/06 20:39:28;;;;;;;9.00;2.30;;;;;;;11.21;100.00;100068.22;5022262;28;20034;-47
2022/02/06 20:41:54;;;;;;;20.13;2.78;;;;;;;11.76;100.00;100088.91;5027348;28;20052;-47
2022/02/06 20:44:19;;;;;;;13.10;2.60;;;;;;;11.89;100.00;100083.44;5016068;28;20041;-45
2022/02/06 20:46:44;;;;;;;26.13;3.67;;;;;;;11.85;100.00;100103.69;5018047;28;20490;-49
2022/02/06 20:49:10;;;;;;;7.27;2.07;;;;;;;11.78;100.00;100110.97;5025565;28;20033;-45
2022/02/06 20:51:35;;;;;;;23.37;3.47;;;;;;;11.67;100.00;100107.16;5025134;28;20059;-46
2022/02/06 20:54:01;;;;;;;16.73;2.70;;;;;;;10.99;100.00;100101.50;5018575;28;20119;-48
2022/02/06 20:56:27;;;;;;;16.98;2.53;;;;;;;11.29;100.00;100114.25;5014755;28;20436;-49
2022/02/06 20:58:54;;;;;;;15.93;2.92;;;;;;;11.67;100.00;100117.03;5012226;28;20129;-49
2022/02/06 21:01:20;;;;;;;;;;;;;;;11.48;100.00;100114.31;5012825;28;20059;-47
2022/02/06 21:03:46;;;;;;;28.02;3.40;;;;;;;11.05;100.00;100127.41;5012666;28;19913;-49
2022/02/06 21:06:13;;;;;;;19.70;2.80;;;;;;;11.52;100.00;100123.53;5010345;28;20054;-47
2022/02/06 21:08:40;;;;;;;;;;;;;;;11.13;100.00;100149.59;5011743;28;20073;-44
2022/02/06 21:11:06;;;;;;;18.80;3.22;;;;;;;10.52;100.00;100149.91;5012339;28;19913;-45
2022/02/06 21:13:33;;;;;;;16.52;3.28;;;;;;;11.15;100.00;100147.53;5012263;28;20072;-44
2022/02/06 21:16:00;;;;;;;19.17;2.80;;;;;;;11.15;100.00;100158.22;5011880;28;20040;-47
2022/02/06 21:18:27;;;;;;;27.00;5.80;;;;;;;10.85;100.00;100143.59;5012066;28;20044;-45
2022/02/06 21:20:55;;;;;;;22.98;3.40;;;;;;;10.83;100.00;100156.34;5012138;28;20045;-46
2022/02/06 21:23:20;;;;;;;20.80;3.10;;;;;;;10.61;100.00;100167.34;5022343;28;20120;-46
2022/02/06 21:25:46;;;;;;;16.87;4.70;;;;;;;10.82;100.00;100169.94;5020242;28;20137;-47
2022/02/06 21:28:13;;;;;;;21.20;2.80;;;;;;;11.02;100.00;100176.00;5028929;28;20076;-43
2022/02/06 21:30:38;;;;;;;17.25;2.58;;;;;;;10.87;100.00;100184.31;5000348;28;20029;-47
2022/02/06 21:33:04;;;;;;;18.33;2.93;;;;;;;10.26;100.00;100188.22;5025980;28;20057;-46
2022/02/06 21:35:29;;;;;;;21.77;2.87;;;;;;;10.80;100.00;100199.56;5023199;28;20129;-48
2022/02/06 21:37:55;;;;;;;30.20;3.63;;;;;;;10.61;100.00;100196.75;5018823;28;20065;-45
2022/02/06 21:40:20;;;;;;;24.23;3.07;;;;;;;10.71;100.00;100208.84;5029067;28;20037;-46
2022/02/06 21:42:46;;;;;;;29.10;3.60;;;;;;;10.56;100.00;100214.47;5017414;28;20044;-49
2022/02/06 21:45:11;;;;;;;19.60;3.07;;;;;;;11.13;100.00;100213.81;5024621;28;20038;-49
2022/02/06 21:47:37;;;;;;;36.53;4.50;;;;;;;11.13;100.00;100214.63;5023615;28;20033;-45
2022/02/06 21:50:03;;;;;;;20.77;4.03;;;;;;;10.71;100.00;100215.03;5017719;28;20362;-47
2022/02/06 21:52:29;;;;;;;;;;;;;;;10.40;100.00;100242.44;5028946;28;20116;-47
2022/02/06 21:54:55;;;;;;;25.95;3.95;;;;;;;10.30;100.00;100258.91;5018149;28;19913;-46
2022/02/06 21:57:20;;;;;;;18.77;3.40;;;;;;;10.13;100.00;100261.19;5023481;28;20053;-45
2022/02/06 21:59:46;;;;;;;13.65;2.25;;;;;;;10.00;100.00;100280.72;5024829;28;20086;-46
2022/02/06 22:02:13;;;;;;;28.45;6.13;;;;;;;10.06;100.00;100284.44;5016046;28;20061;-47
2022/02/06 22:04:39;;;;;;;;;;;;;;;10.59;100.00;100291.59;5028970;28;20030;-46
2022/02/06 22:07:06;;;;;;;13.93;1.80;;;;;;;10.36;100.00;100300.03;5012358;28;19924;-49
2022/02/06 22:09:54;;;;;;;19.77;3.45;;;;;;;10.62;100.00;100304.56;5012394;28;20041;-45
2022/02/06 22:23:15;;;;;;;24.70;4.07;;;;;;;10.30;100.00;100334.59;5018075;28;20150;-47
2022/02/06 22:28:53;;;;;;;15.43;2.70;;;;;;;10.25;100.00;100352.25;5020187;28;20048;-45
2022/02/06 22:31:17;;;;;;;18.45;3.33;;;;;;;10.20;100.00;100339.50;5020566;28;20497;-45
2022/02/06 22:33:42;;;;;;;35.40;2.67;;;;;;;10.49;100.00;100350.03;5019909;28;20042;-46
2022/02/06 22:36:09;;;;;;;9.15;2.55;;;;;;;9.83;100.00;100363.09;5027258;28;20458;-45
2022/02/06 22:38:34;;;;;;;19.30;2.83;;;;;;;10.13;100.00;100360.88;5015199;28;20091;-45
2022/02/06 22:41:00;;;;;;;11.97;1.47;;;;;;;10.60;100.00;100373.44;5025843;28;20049;-44
2022/02/06 22:43:26;;;;;;;10.80;1.77;;;;;;;9.87;100.00;100377.69;5021719;28;20080;-44
2022/02/06 22:45:52;;;;;;;;;;;;;;;10.02;100.00;100374.84;5018929;28;20042;-43
2022/02/06 22:48:17;;;;;;;12.57;2.17;;;;;;;10.48;100.00;100383.94;5028189;28;19917;-45
2022/02/06 22:50:43;;;;;;;16.23;1.53;;;;;;;10.30;100.00;100389.88;5015507;28;20485;-44
2022/02/06 22:53:08;;;;;;;19.33;2.15;;;;;;;9.95;100.00;100390.84;5024490;28;20037;-43
2022/02/06 22:55:36;;;;;;;20.63;2.93;;;;;;;10.08;100.00;100411.44;5022467;28;20068;-44
2022/02/06 22:58:01;;;;;;;21.38;3.58;;;;;;;10.33;100.00;100424.22;5017180;28;20042;-44
2022/02/06 23:00:47;;;;;;;26.87;3.03;;;;;;;10.26;100.00;100447.44;5015606;28;20093;-46
2022/02/06 23:03:15;;;;;;;26.20;2.92;;;;;;;10.22;100.00;100463.03;5013145;28;20036;-47
2022/02/06 23:05:41;;;;;;;16.40;2.42;;;;;;;10.47;100.00;100468.69;5013996;28;20065;-47
2022/02/06 23:08:07;;;;;;;17.15;2.30;;;;;;;9.71;100.00;100480.38;5015398;28;20034;-46
2022/02/06 23:10:33;;;;;;;21.80;3.13;;;;;;;9.68;100.00;100470.06;5015263;28;20037;-46
2022/02/06 23:12:58;;;;;;;7.90;1.70;;;;;;;10.13;100.00;100482.97;5014177;28;20034;-44
2022/02/06 23:15:24;;;;;;;17.90;5.30;;;;;;;9.88;100.00;100486.19;4997894;28;20585;-49
2022/02/06 23:17:50;;;;;;;18.58;2.03;;;;;;;10.27;100.00;100483.81;5015361;28;20037;-45
2022/02/06 23:20:16;;;;;;;14.50;2.45;;;;;;;10.13;100.00;100497.13;5014120;28;20038;-48
2022/02/06 23:22:43;;;;;;;;;;;;;;;10.35;100.00;100501.53;5015604;28;20041;-50
2022/02/06 23:25:09;;;;;;;16.85;1.98;;;;;;;9.96;100.00;100506.56;5014772;28;19942;-45
2022/02/06 23:27:35;;;;;;;17.63;3.65;;;;;;;9.81;100.00;100510.19;5013966;28;20069;-47
2022/02/06 23:30:01;;;;;;;20.83;2.65;;;;;;;10.18;100.00;100518.75;5015234;28;20140;-46
2022/02/06 23:32:26;;;;;;;16.17;2.20;;;;;;;9.60;100.00;100514.59;5014742;28;20574;-45
2022/02/06 23:34:52;;;;;;;30.57;3.80;;;;;;;9.88;100.00;100526.25;5012393;28;20128;-46
2022/02/06 23:37:19;;;;;;;35.13;3.40;;;;;;;9.98;100.00;100539.22;5014895;28;20030;-49
2022/02/06 23:39:48;;;;;;;22.25;2.92;;;;;;;10.35;100.00;100545.09;5013515;28;20520;-48
2022/02/06 23:42:14;;;;;;;28.45;3.75;;;;;;;10.12;100.00;100551.59;5012486;28;20041;-46
2022/02/06 23:44:39;;;;;;;28.37;3.40;;;;;;;9.92;100.00;100558.72;5016578;28;20056;-46
2022/02/06 23:47:10;;;;;;;19.03;3.57;;;;;;;10.44;100.00;100575.19;5028398;28;20033;-46
2022/02/06 23:49:36;;;;;;;20.70;3.00;;;;;;;10.05;100.00;100582.81;5025360;28;20037;-46
2022/02/06 23:52:11;;;;;;;26.77;3.60;;;;;;;10.10;100.00;100587.59;5020562;28;20057;-45
2022/02/06 23:54:52;;;;;;;24.17;3.60;;;;;;;10.09;100.00;100589.41;5030875;28;20087;-49
2022/02/06 23:57:34;;;;;;;22.23;3.35;;;;;;;10.48;100.00;100597.81;5013067;28;20026;-45
